Vandiver, Alabama
Current Conditions -  °F | °C
As of 6:53 PM on Sunday 21 Dec 2014 (Local Time) from KBHM Reporting Station
Overcast Overcast  
Wind Chill: 53°   Ceiling: 1800
Heat Index: 53°   Visibility: 10mi
Dew Point: 46°   Wind: 3mph
Humidity: 77%   Direction: NA
Pressure: 30.08"   Gusts: NA
Location:  33.47°N, 86.51°W
Report Text: KBHM 220053Z VRB03KT 10SM BKN018 OVC023 12/08 A3008 RMK AO2 SLP184 T01170078
Loading
Personal Weather Stations






























Interactive Weather Map New forecast layout! Learn more

10-Day Weather Forecast

Advertisements
Track Severe Weather on mobile